Kulusuk, Greenland

4:14 PM WGST on September 17, 2014 (GMT -0200)
Kulusuk | Change Station
CLOSE
Current Station
Personal Weather Station
Location: Kulusuk Bygd, EASTGREENLAND
Elevation: 90 ft
Nearby Weather Stations

Elev 90 ft 65.58 °N, 37.19 °W | Updated 26 seconds ago

Partly Cloudy
Partly Cloudy
44.2 °F
Feels Like 35 °F
N
23.0
Wind Variable Wind from East
Gusts 23.0 mph

Today
High -- | Low -- °F
--% Chance of Precip.
Yesterday
High -- | Low -- °F
Precip. -- in
5:55 AM 6:49 PM
Waning Crescent, 34% visible
Pressure 30.30 in
Visibility 6.2 miles
Clouds Few 20000 ft
Windchill 35 °F
Dew Point 21 °F
Humidity 40%
Rainfall 0.00 in
Snow Depth Not available.
UV 1 out of 12
Pollen Not available.
Air Quality Not available.
Flu Activity Not available.
METAR BGKK 171750Z 07013KT 9999 FEW200 06/M10 Q1026

More Conditions Fewer Conditions

Pressure 30.30 in
Visibility 6.2 miles
Clouds Few 20000 ft
Windchill 35 °F
Dew Point 21 °F
Humidity 40%
Rainfall 0.00 in
Snow Depth Not available.
UV 1 out of 12
Pollen Not available.
Air Quality Not available.
Flu Activity Not available.
METAR BGKK 171750Z 07013KT 9999 FEW200 06/M10 Q1026

More Conditions Fewer Conditions

10-Day Weather Forecast

Almanac

Astronomy

Sep. 17, 2014 Rise Set
Actual Time 5:55 AM WGST 6:49 PM WGST
Civil Twilight 5:03 AM WGST 7:40 PM WGST
Nautical Twilight 3:58 AM WGST 8:44 PM WGST
Astronomical Twilight 2:36 AM WGST 10:04 PM WGST
Moon 11:01 PM WGST 4:35 PM WGST
Length of Visible Light 14h 36m
Length of Day
12h 53m
Tomorrow will be 6m 52s shorter.
Waning Crescent, 34% of the Moon is Illuminated
Today
Waning Crescent
Sep 24
New
Oct 1
First Quarter
Oct 8
Full
Oct 15
Last Quarter

Today's Extremes

Country Highs Country Lows

Community

WunderPhotos

Upload Photos

1,754,122 photos uploaded!

WunderBlogs® & News

Nearby

Snow Depth

Not available.

Earthquake Activity

City Distance Mag. Time & Date
No recent earthquake activity has been reported nearby.
Minimum magnitude displayed is 2.5.

Coastal Water Temperatures

Place Temperature
No Stations Reporting

Nearby Weather Stations